sensor_id;sensor_type;location;lat;lon;timestamp;P1;durP1;ratioP1;P2;durP2;ratioP2
11767;SDS011;5941;57.652;12.514;2023-04-24T00:01:18;1999.90;;;999.90;;
11767;SDS011;5941;57.652;12.514;2023-04-24T00:03:44;1999.90;;;999.90;;
11767;SDS011;5941;57.652;12.514;2023-04-24T00:06:10;1999.90;;;999.90;;
11767;SDS011;5941;57.652;12.514;2023-04-24T00:08:36;1999.90;;;999.90;;
11767;SDS011;5941;57.652;12.514;2023-04-24T00:11:02;1999.90;;;999.90;;
11767;SDS011;5941;57.652;12.514;2023-04-24T00:13:28;1999.90;;;999.90;;
11767;SDS011;5941;57.652;12.514;2023-04-24T00:15:55;1999.90;;;999.90;;
11767;SDS011;5941;57.652;12.514;2023-04-24T00:18:21;1999.90;;;999.90;;
11767;SDS011;5941;57.652;12.514;2023-04-24T00:20:47;1999.90;;;999.90;;
11767;SDS011;5941;57.652;12.514;2023-04-24T00:23:13;1999.90;;;999.90;;
11767;SDS011;5941;57.652;12.514;2023-04-24T00:25:39;1999.90;;;999.90;;
11767;SDS011;5941;57.652;12.514;2023-04-24T00:28:05;1999.90;;;999.90;;
11767;SDS011;5941;57.652;12.514;2023-04-24T00:30:31;1999.90;;;999.90;;
11767;SDS011;5941;57.652;12.514;2023-04-24T00:32:57;1999.90;;;999.90;;
11767;SDS011;5941;57.652;12.514;2023-04-24T00:35:23;1999.90;;;999.90;;
11767;SDS011;5941;57.652;12.514;2023-04-24T00:37:49;1999.90;;;999.90;;
11767;SDS011;5941;57.652;12.514;2023-04-24T00:40:15;1999.90;;;999.90;;
11767;SDS011;5941;57.652;12.514;2023-04-24T00:42:41;1999.90;;;999.90;;
11767;SDS011;5941;57.652;12.514;2023-04-24T00:45:07;1999.90;;;999.90;;
11767;SDS011;5941;57.652;12.514;2023-04-24T00:47:33;1999.90;;;999.90;;
11767;SDS011;5941;57.652;12.514;2023-04-24T00:50:03;1999.90;;;999.90;;
11767;SDS011;5941;57.652;12.514;2023-04-24T00:52:29;1999.90;;;999.90;;
11767;SDS011;5941;57.652;12.514;2023-04-24T00:54:57;1999.90;;;999.90;;
11767;SDS011;5941;57.652;12.514;2023-04-24T00:57:23;1999.90;;;999.90;;
11767;SDS011;5941;57.652;12.514;2023-04-24T00:59:49;1999.90;;;999.90;;
11767;SDS011;5941;57.652;12.514;2023-04-24T01:02:16;1999.90;;;999.90;;
11767;SDS011;5941;57.652;12.514;2023-04-24T01:04:42;1999.90;;;999.90;;
11767;SDS011;5941;57.652;12.514;2023-04-24T01:07:08;1999.90;;;999.90;;
11767;SDS011;5941;57.652;12.514;2023-04-24T01:09:36;1999.90;;;999.90;;
11767;SDS011;5941;57.652;12.514;2023-04-24T01:12:03;1999.90;;;999.90;;
11767;SDS011;5941;57.652;12.514;2023-04-24T01:14:30;1999.90;;;999.90;;
11767;SDS011;5941;57.652;12.514;2023-04-24T01:16:56;1999.90;;;999.90;;
11767;SDS011;5941;57.652;12.514;2023-04-24T01:19:22;1999.90;;;999.90;;
11767;SDS011;5941;57.652;12.514;2023-04-24T01:21:49;1999.90;;;999.90;;
11767;SDS011;5941;57.652;12.514;2023-04-24T01:24:16;1999.90;;;999.90;;
11767;SDS011;5941;57.652;12.514;2023-04-24T01:26:44;1999.90;;;999.90;;
11767;SDS011;5941;57.652;12.514;2023-04-24T01:29:10;1999.90;;;999.90;;
11767;SDS011;5941;57.652;12.514;2023-04-24T01:31:36;1999.90;;;999.90;;
11767;SDS011;5941;57.652;12.514;2023-04-24T01:34:02;1999.90;;;999.90;;
11767;SDS011;5941;57.652;12.514;2023-04-24T01:36:28;1999.90;;;999.90;;
11767;SDS011;5941;57.652;12.514;2023-04-24T01:38:56;1999.90;;;999.90;;
11767;SDS011;5941;57.652;12.514;2023-04-24T01:41:22;1999.90;;;999.90;;
11767;SDS011;5941;57.652;12.514;2023-04-24T01:43:48;1999.90;;;999.90;;
11767;SDS011;5941;57.652;12.514;2023-04-24T01:46:14;1999.90;;;999.90;;
11767;SDS011;5941;57.652;12.514;2023-04-24T01:48:41;1999.90;;;999.90;;
11767;SDS011;5941;57.652;12.514;2023-04-24T01:51:07;1999.90;;;999.90;;
11767;SDS011;5941;57.652;12.514;2023-04-24T01:53:33;1999.90;;;999.90;;
11767;SDS011;5941;57.652;12.514;2023-04-24T01:55:59;1999.90;;;999.90;;
11767;SDS011;5941;57.652;12.514;2023-04-24T01:58:25;1999.90;;;999.90;;
11767;SDS011;5941;57.652;12.514;2023-04-24T02:00:51;1999.90;;;999.90;;
11767;SDS011;5941;57.652;12.514;2023-04-24T02:03:17;1999.90;;;999.90;;
11767;SDS011;5941;57.652;12.514;2023-04-24T02:05:43;1999.90;;;999.90;;
11767;SDS011;5941;57.652;12.514;2023-04-24T02:08:10;1999.90;;;999.90;;
11767;SDS011;5941;57.652;12.514;2023-04-24T02:10:36;1999.90;;;999.90;;
11767;SDS011;5941;57.652;12.514;2023-04-24T02:13:02;1999.90;;;999.90;;
11767;SDS011;5941;57.652;12.514;2023-04-24T02:15:28;1999.90;;;999.90;;
11767;SDS011;5941;57.652;12.514;2023-04-24T02:17:54;1999.90;;;999.90;;
11767;SDS011;5941;57.652;12.514;2023-04-24T02:20:20;1999.90;;;999.90;;
11767;SDS011;5941;57.652;12.514;2023-04-24T02:22:46;1999.90;;;999.90;;
11767;SDS011;5941;57.652;12.514;2023-04-24T02:25:12;1999.90;;;999.90;;
11767;SDS011;5941;57.652;12.514;2023-04-24T02:27:38;1999.90;;;999.90;;
11767;SDS011;5941;57.652;12.514;2023-04-24T02:30:04;1999.90;;;999.90;;
11767;SDS011;5941;57.652;12.514;2023-04-24T02:32:31;1999.90;;;999.90;;
11767;SDS011;5941;57.652;12.514;2023-04-24T02:34:57;1999.90;;;999.90;;
11767;SDS011;5941;57.652;12.514;2023-04-24T02:37:22;1999.90;;;999.90;;
11767;SDS011;5941;57.652;12.514;2023-04-24T02:39:48;1999.90;;;999.90;;
11767;SDS011;5941;57.652;12.514;2023-04-24T02:42:14;1999.90;;;999.90;;
11767;SDS011;5941;57.652;12.514;2023-04-24T02:44:40;1999.90;;;999.90;;
11767;SDS011;5941;57.652;12.514;2023-04-24T02:47:06;1999.90;;;999.90;;
11767;SDS011;5941;57.652;12.514;2023-04-24T02:49:33;1999.90;;;999.90;;
11767;SDS011;5941;57.652;12.514;2023-04-24T02:51:59;1999.90;;;999.90;;
11767;SDS011;5941;57.652;12.514;2023-04-24T02:54:25;1999.90;;;999.90;;
11767;SDS011;5941;57.652;12.514;2023-04-24T02:56:51;1999.90;;;999.90;;
11767;SDS011;5941;57.652;12.514;2023-04-24T02:59:17;1999.90;;;999.90;;
11767;SDS011;5941;57.652;12.514;2023-04-24T03:01:43;1999.90;;;999.90;;
11767;SDS011;5941;57.652;12.514;2023-04-24T03:04:09;1999.90;;;999.90;;
11767;SDS011;5941;57.652;12.514;2023-04-24T03:06:35;1999.90;;;999.90;;
11767;SDS011;5941;57.652;12.514;2023-04-24T03:09:01;1999.90;;;999.90;;
11767;SDS011;5941;57.652;12.514;2023-04-24T03:11:28;1999.90;;;999.90;;
11767;SDS011;5941;57.652;12.514;2023-04-24T03:13:54;1999.90;;;999.90;;
11767;SDS011;5941;57.652;12.514;2023-04-24T03:16:20;1999.90;;;999.90;;
11767;SDS011;5941;57.652;12.514;2023-04-24T03:18:46;1999.90;;;999.90;;
11767;SDS011;5941;57.652;12.514;2023-04-24T03:21:12;1999.90;;;999.90;;
11767;SDS011;5941;57.652;12.514;2023-04-24T03:23:38;1999.90;;;999.90;;
11767;SDS011;5941;57.652;12.514;2023-04-24T03:26:04;1999.90;;;999.90;;
11767;SDS011;5941;57.652;12.514;2023-04-24T03:28:30;1999.90;;;999.90;;
11767;SDS011;5941;57.652;12.514;2023-04-24T03:30:56;1999.90;;;999.90;;
11767;SDS011;5941;57.652;12.514;2023-04-24T03:33:22;1999.90;;;999.90;;
11767;SDS011;5941;57.652;12.514;2023-04-24T03:35:48;1999.90;;;999.90;;
11767;SDS011;5941;57.652;12.514;2023-04-24T03:38:14;1999.90;;;999.90;;
11767;SDS011;5941;57.652;12.514;2023-04-24T03:40:40;1999.90;;;999.90;;
11767;SDS011;5941;57.652;12.514;2023-04-24T03:43:06;1999.90;;;999.90;;
11767;SDS011;5941;57.652;12.514;2023-04-24T03:45:32;1999.90;;;999.90;;
11767;SDS011;5941;57.652;12.514;2023-04-24T03:47:57;1999.90;;;999.90;;
11767;SDS011;5941;57.652;12.514;2023-04-24T03:50:23;1999.90;;;999.90;;
11767;SDS011;5941;57.652;12.514;2023-04-24T03:52:51;1999.90;;;999.90;;
11767;SDS011;5941;57.652;12.514;2023-04-24T03:55:17;1999.90;;;999.90;;
11767;SDS011;5941;57.652;12.514;2023-04-24T03:57:43;1999.90;;;999.90;;
11767;SDS011;5941;57.652;12.514;2023-04-24T04:00:10;1999.90;;;999.90;;
11767;SDS011;5941;57.652;12.514;2023-04-24T04:02:36;1999.90;;;999.90;;
11767;SDS011;5941;57.652;12.514;2023-04-24T04:05:02;1999.90;;;999.90;;
11767;SDS011;5941;57.652;12.514;2023-04-24T04:07:28;1999.90;;;999.90;;
11767;SDS011;5941;57.652;12.514;2023-04-24T04:09:54;1999.90;;;999.90;;
11767;SDS011;5941;57.652;12.514;2023-04-24T04:12:20;1999.90;;;999.90;;
11767;SDS011;5941;57.652;12.514;2023-04-24T04:14:47;1999.90;;;999.90;;
11767;SDS011;5941;57.652;12.514;2023-04-24T04:17:12;1999.90;;;999.90;;
11767;SDS011;5941;57.652;12.514;2023-04-24T04:19:38;1999.90;;;999.90;;
11767;SDS011;5941;57.652;12.514;2023-04-24T04:22:04;1999.90;;;999.90;;
11767;SDS011;5941;57.652;12.514;2023-04-24T04:24:32;1999.90;;;999.90;;
11767;SDS011;5941;57.652;12.514;2023-04-24T04:27:02;1999.90;;;999.90;;
11767;SDS011;5941;57.652;12.514;2023-04-24T04:29:29;1999.90;;;999.90;;
11767;SDS011;5941;57.652;12.514;2023-04-24T04:31:56;1999.90;;;999.90;;
11767;SDS011;5941;57.652;12.514;2023-04-24T04:34:22;1999.90;;;999.90;;
11767;SDS011;5941;57.652;12.514;2023-04-24T04:36:48;1999.90;;;999.90;;
11767;SDS011;5941;57.652;12.514;2023-04-24T04:39:15;1999.90;;;999.90;;
11767;SDS011;5941;57.652;12.514;2023-04-24T04:41:41;1999.90;;;999.90;;
11767;SDS011;5941;57.652;12.514;2023-04-24T04:44:07;1999.90;;;999.90;;
11767;SDS011;5941;57.652;12.514;2023-04-24T04:46:33;1999.90;;;999.90;;
11767;SDS011;5941;57.652;12.514;2023-04-24T04:49:02;1999.90;;;999.90;;
11767;SDS011;5941;57.652;12.514;2023-04-24T04:51:28;1999.90;;;999.90;;
11767;SDS011;5941;57.652;12.514;2023-04-24T04:53:54;1999.90;;;999.90;;
11767;SDS011;5941;57.652;12.514;2023-04-24T04:56:19;1999.90;;;999.90;;
11767;SDS011;5941;57.652;12.514;2023-04-24T04:58:46;1999.90;;;999.90;;
11767;SDS011;5941;57.652;12.514;2023-04-24T05:01:12;1999.90;;;999.90;;
11767;SDS011;5941;57.652;12.514;2023-04-24T05:03:38;1999.90;;;999.90;;
11767;SDS011;5941;57.652;12.514;2023-04-24T05:06:04;1999.90;;;999.90;;
11767;SDS011;5941;57.652;12.514;2023-04-24T05:08:31;1999.90;;;999.90;;
11767;SDS011;5941;57.652;12.514;2023-04-24T05:10:57;1999.90;;;999.90;;
11767;SDS011;5941;57.652;12.514;2023-04-24T05:13:23;1999.90;;;999.90;;
11767;SDS011;5941;57.652;12.514;2023-04-24T05:15:48;1999.90;;;999.90;;
11767;SDS011;5941;57.652;12.514;2023-04-24T05:18:14;1999.90;;;999.90;;
11767;SDS011;5941;57.652;12.514;2023-04-24T05:20:41;1999.90;;;999.90;;
11767;SDS011;5941;57.652;12.514;2023-04-24T05:23:08;1999.90;;;999.90;;
11767;SDS011;5941;57.652;12.514;2023-04-24T05:25:34;1999.90;;;999.90;;
11767;SDS011;5941;57.652;12.514;2023-04-24T05:28:01;1999.90;;;999.90;;
11767;SDS011;5941;57.652;12.514;2023-04-24T05:30:27;1999.90;;;999.90;;
11767;SDS011;5941;57.652;12.514;2023-04-24T05:32:53;1999.90;;;999.90;;
11767;SDS011;5941;57.652;12.514;2023-04-24T05:35:19;1999.90;;;999.90;;
11767;SDS011;5941;57.652;12.514;2023-04-24T05:37:45;1999.90;;;999.90;;
11767;SDS011;5941;57.652;12.514;2023-04-24T05:40:12;1999.90;;;999.90;;
11767;SDS011;5941;57.652;12.514;2023-04-24T05:42:38;1999.90;;;999.90;;
11767;SDS011;5941;57.652;12.514;2023-04-24T05:45:04;1999.90;;;999.90;;
11767;SDS011;5941;57.652;12.514;2023-04-24T05:47:30;1999.90;;;999.90;;
11767;SDS011;5941;57.652;12.514;2023-04-24T05:49:56;1999.90;;;999.90;;
11767;SDS011;5941;57.652;12.514;2023-04-24T05:52:22;1999.90;;;999.90;;
11767;SDS011;5941;57.652;12.514;2023-04-24T05:54:48;1999.90;;;999.90;;
11767;SDS011;5941;57.652;12.514;2023-04-24T05:57:14;1999.90;;;999.90;;
11767;SDS011;5941;57.652;12.514;2023-04-24T05:59:40;1999.90;;;999.90;;
11767;SDS011;5941;57.652;12.514;2023-04-24T06:02:06;1999.90;;;999.90;;
11767;SDS011;5941;57.652;12.514;2023-04-24T06:04:32;1999.90;;;999.90;;
11767;SDS011;5941;57.652;12.514;2023-04-24T06:06:59;1999.90;;;999.90;;
11767;SDS011;5941;57.652;12.514;2023-04-24T06:09:25;1999.90;;;999.90;;
11767;SDS011;5941;57.652;12.514;2023-04-24T06:11:51;1999.90;;;999.90;;
11767;SDS011;5941;57.652;12.514;2023-04-24T06:14:18;1999.90;;;999.90;;
11767;SDS011;5941;57.652;12.514;2023-04-24T06:16:44;1999.90;;;999.90;;
11767;SDS011;5941;57.652;12.514;2023-04-24T06:19:10;1999.90;;;999.90;;
11767;SDS011;5941;57.652;12.514;2023-04-24T06:21:36;1999.90;;;999.90;;
11767;SDS011;5941;57.652;12.514;2023-04-24T06:24:02;1999.90;;;999.90;;
11767;SDS011;5941;57.652;12.514;2023-04-24T06:26:29;1999.90;;;999.90;;
11767;SDS011;5941;57.652;12.514;2023-04-24T06:28:55;1999.90;;;999.90;;
11767;SDS011;5941;57.652;12.514;2023-04-24T06:31:21;1999.90;;;999.90;;
11767;SDS011;5941;57.652;12.514;2023-04-24T06:33:48;1999.90;;;999.90;;
11767;SDS011;5941;57.652;12.514;2023-04-24T06:36:14;1999.90;;;999.90;;
11767;SDS011;5941;57.652;12.514;2023-04-24T06:38:41;1999.90;;;999.90;;
11767;SDS011;5941;57.652;12.514;2023-04-24T06:41:07;1999.90;;;999.90;;
11767;SDS011;5941;57.652;12.514;2023-04-24T06:43:33;1999.90;;;999.90;;
11767;SDS011;5941;57.652;12.514;2023-04-24T06:45:59;1999.90;;;999.90;;
11767;SDS011;5941;57.652;12.514;2023-04-24T06:48:25;1999.90;;;999.90;;
11767;SDS011;5941;57.652;12.514;2023-04-24T06:50:52;1999.90;;;999.90;;
11767;SDS011;5941;57.652;12.514;2023-04-24T06:53:18;1999.90;;;999.90;;
11767;SDS011;5941;57.652;12.514;2023-04-24T06:55:44;1999.90;;;999.90;;
11767;SDS011;5941;57.652;12.514;2023-04-24T06:58:11;1999.90;;;999.90;;
11767;SDS011;5941;57.652;12.514;2023-04-24T07:00:37;1999.90;;;999.90;;
11767;SDS011;5941;57.652;12.514;2023-04-24T07:03:03;1999.90;;;999.90;;
11767;SDS011;5941;57.652;12.514;2023-04-24T07:05:32;1999.90;;;999.90;;
11767;SDS011;5941;57.652;12.514;2023-04-24T07:08:03;1999.90;;;999.90;;
11767;SDS011;5941;57.652;12.514;2023-04-24T07:10:29;1999.90;;;999.90;;
11767;SDS011;5941;57.652;12.514;2023-04-24T07:12:55;1999.90;;;999.90;;
11767;SDS011;5941;57.652;12.514;2023-04-24T07:15:21;1999.90;;;999.90;;
11767;SDS011;5941;57.652;12.514;2023-04-24T07:17:48;1999.90;;;999.90;;
11767;SDS011;5941;57.652;12.514;2023-04-24T07:20:14;1999.90;;;999.90;;
11767;SDS011;5941;57.652;12.514;2023-04-24T07:22:40;1999.90;;;999.90;;
11767;SDS011;5941;57.652;12.514;2023-04-24T07:25:06;1999.90;;;999.90;;
11767;SDS011;5941;57.652;12.514;2023-04-24T07:27:33;1999.90;;;999.90;;
11767;SDS011;5941;57.652;12.514;2023-04-24T07:29:59;1999.90;;;999.90;;
11767;SDS011;5941;57.652;12.514;2023-04-24T07:32:25;1999.90;;;999.90;;
11767;SDS011;5941;57.652;12.514;2023-04-24T07:34:51;1999.90;;;999.90;;
11767;SDS011;5941;57.652;12.514;2023-04-24T07:37:17;1999.90;;;999.90;;
11767;SDS011;5941;57.652;12.514;2023-04-24T07:39:43;1999.90;;;999.90;;
11767;SDS011;5941;57.652;12.514;2023-04-24T07:42:09;1999.90;;;999.90;;
11767;SDS011;5941;57.652;12.514;2023-04-24T07:44:35;1999.90;;;999.90;;
11767;SDS011;5941;57.652;12.514;2023-04-24T07:47:01;1999.90;;;999.90;;
11767;SDS011;5941;57.652;12.514;2023-04-24T07:49:27;1999.90;;;999.90;;
11767;SDS011;5941;57.652;12.514;2023-04-24T07:51:53;1999.90;;;999.90;;
11767;SDS011;5941;57.652;12.514;2023-04-24T07:54:19;1999.90;;;999.90;;
11767;SDS011;5941;57.652;12.514;2023-04-24T07:56:45;1999.90;;;999.90;;
11767;SDS011;5941;57.652;12.514;2023-04-24T07:59:11;1999.90;;;999.90;;
11767;SDS011;5941;57.652;12.514;2023-04-24T08:01:37;1999.90;;;999.90;;
11767;SDS011;5941;57.652;12.514;2023-04-24T08:04:03;1999.90;;;999.90;;
11767;SDS011;5941;57.652;12.514;2023-04-24T08:06:29;1999.90;;;999.90;;
11767;SDS011;5941;57.652;12.514;2023-04-24T08:08:56;1999.90;;;999.90;;
11767;SDS011;5941;57.652;12.514;2023-04-24T08:11:22;1999.90;;;999.90;;
11767;SDS011;5941;57.652;12.514;2023-04-24T08:13:48;1999.90;;;999.90;;
11767;SDS011;5941;57.652;12.514;2023-04-24T08:16:14;1999.90;;;999.90;;
11767;SDS011;5941;57.652;12.514;2023-04-24T08:18:40;1999.90;;;999.90;;
11767;SDS011;5941;57.652;12.514;2023-04-24T08:21:06;1999.90;;;999.90;;
11767;SDS011;5941;57.652;12.514;2023-04-24T08:23:32;1999.90;;;999.90;;
11767;SDS011;5941;57.652;12.514;2023-04-24T08:25:58;1999.90;;;999.90;;
11767;SDS011;5941;57.652;12.514;2023-04-24T08:28:24;1999.90;;;999.90;;
11767;SDS011;5941;57.652;12.514;2023-04-24T08:30:50;1999.90;;;999.90;;
11767;SDS011;5941;57.652;12.514;2023-04-24T08:33:23;1999.90;;;999.90;;
11767;SDS011;5941;57.652;12.514;2023-04-24T08:35:49;1999.90;;;999.90;;
11767;SDS011;5941;57.652;12.514;2023-04-24T08:38:16;1999.90;;;999.90;;
11767;SDS011;5941;57.652;12.514;2023-04-24T08:40:42;1999.90;;;999.90;;
11767;SDS011;5941;57.652;12.514;2023-04-24T08:43:10;1999.90;;;999.90;;
11767;SDS011;5941;57.652;12.514;2023-04-24T08:45:36;1999.90;;;999.90;;
11767;SDS011;5941;57.652;12.514;2023-04-24T08:48:03;1999.90;;;999.90;;
11767;SDS011;5941;57.652;12.514;2023-04-24T08:50:30;1999.90;;;999.90;;
11767;SDS011;5941;57.652;12.514;2023-04-24T08:52:57;1999.90;;;999.90;;
11767;SDS011;5941;57.652;12.514;2023-04-24T08:55:24;1999.90;;;999.90;;
11767;SDS011;5941;57.652;12.514;2023-04-24T08:57:51;1999.90;;;999.90;;
11767;SDS011;5941;57.652;12.514;2023-04-24T09:00:21;1999.90;;;999.90;;
11767;SDS011;5941;57.652;12.514;2023-04-24T09:02:48;1999.90;;;999.90;;
11767;SDS011;5941;57.652;12.514;2023-04-24T09:05:15;1999.90;;;999.90;;
11767;SDS011;5941;57.652;12.514;2023-04-24T09:07:42;1999.90;;;999.90;;
11767;SDS011;5941;57.652;12.514;2023-04-24T09:10:11;1999.90;;;999.90;;
11767;SDS011;5941;57.652;12.514;2023-04-24T09:12:37;1999.90;;;999.90;;
11767;SDS011;5941;57.652;12.514;2023-04-24T09:15:03;1999.90;;;999.90;;
11767;SDS011;5941;57.652;12.514;2023-04-24T09:17:30;1999.90;;;999.90;;
11767;SDS011;5941;57.652;12.514;2023-04-24T09:19:56;1999.90;;;999.90;;
11767;SDS011;5941;57.652;12.514;2023-04-24T09:22:22;1999.90;;;999.90;;
11767;SDS011;5941;57.652;12.514;2023-04-24T09:24:48;1999.90;;;999.90;;
11767;SDS011;5941;57.652;12.514;2023-04-24T09:27:25;1999.90;;;999.90;;
11767;SDS011;5941;57.652;12.514;2023-04-24T09:29:56;1999.90;;;999.90;;
11767;SDS011;5941;57.652;12.514;2023-04-24T09:32:24;1999.90;;;999.90;;
11767;SDS011;5941;57.652;12.514;2023-04-24T09:35:04;1999.90;;;999.90;;
11767;SDS011;5941;57.652;12.514;2023-04-24T09:37:34;1999.90;;;999.90;;
11767;SDS011;5941;57.652;12.514;2023-04-24T09:40:07;1999.90;;;999.90;;
11767;SDS011;5941;57.652;12.514;2023-04-24T09:42:33;1999.90;;;999.90;;
11767;SDS011;5941;57.652;12.514;2023-04-24T09:44:59;1999.90;;;999.90;;
11767;SDS011;5941;57.652;12.514;2023-04-24T09:47:25;1999.90;;;999.90;;
11767;SDS011;5941;57.652;12.514;2023-04-24T09:49:51;1999.90;;;999.90;;
11767;SDS011;5941;57.652;12.514;2023-04-24T09:52:23;1999.90;;;999.90;;
11767;SDS011;5941;57.652;12.514;2023-04-24T09:54:53;1999.90;;;999.90;;
11767;SDS011;5941;57.652;12.514;2023-04-24T09:57:19;1999.90;;;999.90;;
11767;SDS011;5941;57.652;12.514;2023-04-24T09:59:45;1999.90;;;999.90;;
11767;SDS011;5941;57.652;12.514;2023-04-24T10:02:18;1999.90;;;999.90;;
11767;SDS011;5941;57.652;12.514;2023-04-24T10:04:53;1999.90;;;999.90;;
11767;SDS011;5941;57.652;12.514;2023-04-24T10:07:27;1999.90;;;999.90;;
11767;SDS011;5941;57.652;12.514;2023-04-24T10:09:54;1999.90;;;999.90;;
11767;SDS011;5941;57.652;12.514;2023-04-24T10:12:20;1999.90;;;999.90;;
11767;SDS011;5941;57.652;12.514;2023-04-24T10:14:47;1999.90;;;999.90;;
11767;SDS011;5941;57.652;12.514;2023-04-24T10:17:13;1999.90;;;999.90;;
11767;SDS011;5941;57.652;12.514;2023-04-24T10:19:39;1999.90;;;999.90;;
11767;SDS011;5941;57.652;12.514;2023-04-24T10:22:06;1999.90;;;999.90;;
11767;SDS011;5941;57.652;12.514;2023-04-24T10:24:33;1999.90;;;999.90;;
11767;SDS011;5941;57.652;12.514;2023-04-24T10:27:01;1999.90;;;999.90;;
11767;SDS011;5941;57.652;12.514;2023-04-24T10:29:27;1999.90;;;999.90;;
11767;SDS011;5941;57.652;12.514;2023-04-24T10:31:55;1999.90;;;999.90;;
11767;SDS011;5941;57.652;12.514;2023-04-24T10:34:21;1999.90;;;999.90;;
11767;SDS011;5941;57.652;12.514;2023-04-24T10:36:49;1999.90;;;999.90;;
11767;SDS011;5941;57.652;12.514;2023-04-24T10:39:16;1999.90;;;999.90;;
11767;SDS011;5941;57.652;12.514;2023-04-24T10:41:42;1999.90;;;999.90;;
11767;SDS011;5941;57.652;12.514;2023-04-24T10:44:09;1999.90;;;999.90;;
11767;SDS011;5941;57.652;12.514;2023-04-24T10:46:35;1999.90;;;999.90;;
11767;SDS011;5941;57.652;12.514;2023-04-24T10:49:05;1999.90;;;999.90;;
11767;SDS011;5941;57.652;12.514;2023-04-24T10:54:29;1999.90;;;999.90;;
11767;SDS011;5941;57.652;12.514;2023-04-24T10:57:25;1999.90;;;999.90;;
11767;SDS011;5941;57.652;12.514;2023-04-24T10:59:41;1999.90;;;999.90;;
11767;SDS011;5941;57.652;12.514;2023-04-24T11:02:07;1999.90;;;999.90;;
11767;SDS011;5941;57.652;12.514;2023-04-24T11:04:33;1999.90;;;999.90;;
11767;SDS011;5941;57.652;12.514;2023-04-24T11:07:03;1999.90;;;999.90;;
11767;SDS011;5941;57.652;12.514;2023-04-24T11:09:32;1999.90;;;999.90;;
11767;SDS011;5941;57.652;12.514;2023-04-24T11:12:09;1999.90;;;999.90;;
11767;SDS011;5941;57.652;12.514;2023-04-24T11:17:37;1999.90;;;999.90;;
11767;SDS011;5941;57.652;12.514;2023-04-24T11:20:08;1999.90;;;999.90;;
11767;SDS011;5941;57.652;12.514;2023-04-24T11:22:35;1999.90;;;999.90;;
11767;SDS011;5941;57.652;12.514;2023-04-24T11:25:02;1999.90;;;999.90;;
11767;SDS011;5941;57.652;12.514;2023-04-24T11:27:32;1999.90;;;999.90;;
11767;SDS011;5941;57.652;12.514;2023-04-24T11:29:59;1999.90;;;999.90;;
11767;SDS011;5941;57.652;12.514;2023-04-24T11:37:21;1999.90;;;999.90;;
11767;SDS011;5941;57.652;12.514;2023-04-24T11:39:49;1999.90;;;999.90;;
11767;SDS011;5941;57.652;12.514;2023-04-24T11:42:15;1999.90;;;999.90;;
11767;SDS011;5941;57.652;12.514;2023-04-24T11:44:42;1999.90;;;999.90;;
11767;SDS011;5941;57.652;12.514;2023-04-24T11:47:08;1999.90;;;999.90;;
11767;SDS011;5941;57.652;12.514;2023-04-24T11:49:37;1999.90;;;999.90;;
11767;SDS011;5941;57.652;12.514;2023-04-24T11:52:03;1999.90;;;999.90;;
11767;SDS011;5941;57.652;12.514;2023-04-24T11:54:29;1999.90;;;999.90;;
11767;SDS011;5941;57.652;12.514;2023-04-24T11:56:56;1999.90;;;999.90;;
11767;SDS011;5941;57.652;12.514;2023-04-24T11:59:22;1999.90;;;999.90;;
11767;SDS011;5941;57.652;12.514;2023-04-24T12:01:48;743.43;;;403.63;;
11767;SDS011;5941;57.652;12.514;2023-04-24T12:04:15;1999.90;;;999.90;;
11767;SDS011;5941;57.652;12.514;2023-04-24T12:07:00;1999.90;;;999.90;;
11767;SDS011;5941;57.652;12.514;2023-04-24T12:09:26;1401.43;;;728.83;;
11767;SDS011;5941;57.652;12.514;2023-04-24T12:11:55;1999.90;;;999.90;;
11767;SDS011;5941;57.652;12.514;2023-04-24T12:14:22;1367.10;;;697.93;;
11767;SDS011;5941;57.652;12.514;2023-04-24T12:16:48;1999.90;;;999.90;;
11767;SDS011;5941;57.652;12.514;2023-04-24T12:19:21;1999.90;;;999.90;;
11767;SDS011;5941;57.652;12.514;2023-04-24T12:22:00;214.97;;;203.00;;
11767;SDS011;5941;57.652;12.514;2023-04-24T12:24:27;358.77;;;336.00;;
11767;SDS011;5941;57.652;12.514;2023-04-24T12:26:53;368.20;;;337.53;;
11767;SDS011;5941;57.652;12.514;2023-04-24T12:29:20;516.73;;;480.33;;
11767;SDS011;5941;57.652;12.514;2023-04-24T12:31:46;733.80;;;667.63;;
11767;SDS011;5941;57.652;12.514;2023-04-24T12:34:19;412.17;;;383.23;;
11767;SDS011;5941;57.652;12.514;2023-04-24T12:36:45;1054.87;;;951.20;;
11767;SDS011;5941;57.652;12.514;2023-04-24T12:39:15;523.50;;;488.23;;
11767;SDS011;5941;57.652;12.514;2023-04-24T12:42:15;360.10;;;340.13;;
11767;SDS011;5941;57.652;12.514;2023-04-24T12:44:34;364.90;;;345.10;;
11767;SDS011;5941;57.652;12.514;2023-04-24T12:47:02;144.33;;;137.27;;
11767;SDS011;5941;57.652;12.514;2023-04-24T12:49:29;371.97;;;345.53;;
11767;SDS011;5941;57.652;12.514;2023-04-24T12:51:55;374.37;;;351.57;;
11767;SDS011;5941;57.652;12.514;2023-04-24T12:54:21;361.10;;;340.30;;
11767;SDS011;5941;57.652;12.514;2023-04-24T12:56:48;451.83;;;421.20;;
11767;SDS011;5941;57.652;12.514;2023-04-24T12:59:13;466.47;;;436.07;;
11767;SDS011;5941;57.652;12.514;2023-04-24T13:01:40;465.03;;;427.20;;
11767;SDS011;5941;57.652;12.514;2023-04-24T13:04:06;530.13;;;491.70;;
11767;SDS011;5941;57.652;12.514;2023-04-24T13:06:32;522.70;;;486.87;;
11767;SDS011;5941;57.652;12.514;2023-04-24T13:08:58;1999.90;;;999.90;;
11767;SDS011;5941;57.652;12.514;2023-04-24T13:11:24;452.70;;;417.93;;
11767;SDS011;5941;57.652;12.514;2023-04-24T13:13:50;349.77;;;330.67;;
11767;SDS011;5941;57.652;12.514;2023-04-24T13:16:16;353.07;;;333.73;;
11767;SDS011;5941;57.652;12.514;2023-04-24T13:18:42;288.03;;;271.10;;
11767;SDS011;5941;57.652;12.514;2023-04-24T13:21:08;674.60;;;612.53;;
11767;SDS011;5941;57.652;12.514;2023-04-24T13:23:34;457.57;;;429.67;;
11767;SDS011;5941;57.652;12.514;2023-04-24T13:26:00;633.97;;;594.30;;
11767;SDS011;5941;57.652;12.514;2023-04-24T13:28:26;622.40;;;584.60;;
11767;SDS011;5941;57.652;12.514;2023-04-24T13:30:53;429.07;;;405.17;;
11767;SDS011;5941;57.652;12.514;2023-04-24T13:33:19;313.57;;;297.50;;
11767;SDS011;5941;57.652;12.514;2023-04-24T13:35:45;551.60;;;516.60;;
11767;SDS011;5941;57.652;12.514;2023-04-24T13:38:12;544.83;;;514.00;;
11767;SDS011;5941;57.652;12.514;2023-04-24T13:40:38;498.83;;;471.23;;
11767;SDS011;5941;57.652;12.514;2023-04-24T13:43:04;540.87;;;507.13;;
11767;SDS011;5941;57.652;12.514;2023-04-24T13:45:30;424.20;;;393.57;;
11767;SDS011;5941;57.652;12.514;2023-04-24T13:47:56;663.47;;;619.90;;
11767;SDS011;5941;57.652;12.514;2023-04-24T13:50:22;615.90;;;572.70;;
11767;SDS011;5941;57.652;12.514;2023-04-24T13:52:48;516.57;;;485.70;;
11767;SDS011;5941;57.652;12.514;2023-04-24T13:55:14;534.70;;;502.20;;